createdAt,value
2023-04-13T00:01:28.891Z,76.23
2023-04-13T00:04:30.903Z,77.40
2023-04-13T00:07:46.901Z,77.37
2023-04-13T00:10:49.366Z,76.21
2023-04-13T00:14:03.883Z,75.96
2023-04-13T00:17:05.899Z,77.16
2023-04-13T00:20:22.880Z,75.87
2023-04-13T00:23:30.887Z,75.52
2023-04-13T00:26:39.551Z,75.03
2023-04-13T00:29:47.880Z,74.19
2023-04-13T00:32:56.596Z,74.31
2023-04-13T00:36:12.878Z,73.65
2023-04-13T00:39:20.915Z,72.60
2023-04-13T00:42:29.614Z,74.00
2023-04-13T00:45:44.893Z,73.38
2023-04-13T00:49:07.890Z,74.74
2023-04-13T00:52:17.023Z,74.18
2023-04-13T00:55:26.294Z,74.47
2023-04-13T00:58:35.241Z,73.66
2023-04-13T01:01:50.043Z,75.22
2023-04-13T01:04:55.670Z,74.47
2023-04-13T01:08:31.878Z,73.15
2023-04-13T01:11:49.030Z,75.03
2023-04-13T01:15:11.882Z,73.22
2023-04-13T01:18:15.409Z,75.34
2023-04-13T01:21:32.891Z,73.37
2023-04-13T01:24:57.932Z,73.93
2023-04-13T01:28:21.902Z,70.73
2023-04-13T01:31:24.296Z,72.82
2023-04-13T01:34:38.884Z,71.83
2023-04-13T01:37:50.904Z,70.11
2023-04-13T01:40:59.667Z,70.39
2023-04-13T01:44:14.925Z,70.55
2023-04-13T01:47:30.870Z,70.59
2023-04-13T01:50:52.921Z,69.44
2023-04-13T01:54:11.838Z,68.90
2023-04-13T01:57:21.892Z,68.59
2023-04-13T02:00:30.970Z,68.13
2023-04-13T02:03:39.954Z,69.04
2023-04-13T02:06:54.872Z,69.13
2023-04-13T02:10:09.896Z,69.47
2023-04-13T02:13:12.012Z,69.85
2023-04-13T02:16:26.901Z,70.25
2023-04-13T02:19:35.872Z,70.09
2023-04-13T02:22:44.790Z,68.78
2023-04-13T02:25:59.904Z,70.33
2023-04-13T02:29:07.893Z,68.42
2023-04-13T02:32:16.670Z,70.41
2023-04-13T02:35:24.903Z,69.62
2023-04-13T02:38:33.525Z,71.25
2023-04-13T02:41:47.933Z,70.12
2023-04-13T02:44:56.877Z,67.33
2023-04-13T02:48:12.158Z,68.09
2023-04-13T02:51:26.877Z,67.07
2023-04-13T02:54:28.750Z,65.10
2023-04-13T02:57:43.868Z,62.68
2023-04-13T03:00:46.055Z,63.49
2023-04-13T03:04:01.092Z,65.15
2023-04-13T03:07:09.924Z,63.98
2023-04-13T03:10:18.541Z,62.10
2023-04-13T03:13:26.916Z,63.80
2023-04-13T03:16:35.531Z,64.57
2023-04-13T03:19:49.913Z,66.46
2023-04-13T03:22:58.912Z,66.13
2023-04-13T03:26:07.518Z,65.19
2023-04-13T03:29:21.923Z,68.19
2023-04-13T03:32:30.895Z,66.32
2023-04-13T03:35:45.902Z,64.70
2023-04-13T03:38:54.878Z,65.64
2023-04-13T03:42:10.913Z,66.15
2023-04-13T03:45:19.574Z,65.72
2023-04-13T03:48:34.892Z,63.59
2023-04-13T03:51:43.558Z,64.76
2023-04-13T03:54:58.932Z,65.68
2023-04-13T03:58:06.880Z,65.74
2023-04-13T04:01:15.733Z,63.91
2023-04-13T04:04:23.982Z,62.80
2023-04-13T04:07:32.440Z,63.26
2023-04-13T04:10:46.898Z,63.06
2023-04-13T04:14:02.181Z,60.70
2023-04-13T04:17:10.910Z,59.73
2023-04-13T04:20:25.909Z,60.47
2023-04-13T04:23:34.532Z,61.19
2023-04-13T04:26:42.923Z,60.87
2023-04-13T04:30:00.931Z,62.59
2023-04-13T04:33:12.908Z,62.67
2023-04-13T04:36:21.481Z,61.82
2023-04-13T04:39:35.904Z,61.94
2023-04-13T04:42:38.132Z,62.89
2023-04-13T04:45:52.979Z,61.79
2023-04-13T04:49:08.884Z,61.56
2023-04-13T04:52:17.565Z,62.64
2023-04-13T04:55:32.898Z,63.83
2023-04-13T04:58:34.824Z,62.09
2023-04-13T05:01:50.015Z,62.47
2023-04-13T05:05:04.957Z,63.85
2023-04-13T05:08:13.898Z,64.41
2023-04-13T05:11:28.906Z,64.60
2023-04-13T05:14:30.864Z,63.30
2023-04-13T05:17:45.934Z,61.45
2023-04-13T05:20:54.740Z,64.90
2023-04-13T05:24:03.907Z,62.42
2023-04-13T05:27:25.894Z,60.65
2023-04-13T05:30:34.932Z,58.70
2023-04-13T05:33:49.889Z,60.86
2023-04-13T05:36:51.909Z,63.56
2023-04-13T05:40:06.938Z,60.55
2023-04-13T05:43:15.917Z,65.03
2023-04-13T05:46:24.780Z,59.36
2023-04-13T05:49:46.972Z,58.51
2023-04-13T05:52:55.923Z,58.59
2023-04-13T05:56:05.087Z,57.68
2023-04-13T05:59:19.922Z,55.53
2023-04-13T06:02:22.861Z,55.98
2023-04-13T06:05:38.002Z,58.43
2023-04-13T06:08:46.900Z,59.44
2023-04-13T06:12:04.339Z,56.34
2023-04-13T06:15:07.405Z,56.40
2023-04-13T06:18:21.942Z,59.73
2023-04-13T06:21:36.999Z,58.92
2023-04-13T06:24:49.328Z,57.75
2023-04-13T06:27:57.978Z,59.25
2023-04-13T06:31:07.231Z,58.79
2023-04-13T06:34:17.405Z,58.29
2023-04-13T06:37:31.919Z,56.73
2023-04-13T06:40:43.373Z,56.60
2023-04-13T06:43:52.921Z,57.23
2023-04-13T06:47:14.883Z,56.35
2023-04-13T06:50:30.898Z,55.27
2023-04-13T06:53:45.954Z,54.70
2023-04-13T06:57:00.985Z,53.39
2023-04-13T07:00:21.863Z,55.16
2023-04-13T07:03:44.233Z,53.23
2023-04-13T07:06:59.916Z,54.19
2023-04-13T07:10:15.906Z,53.62
2023-04-13T07:13:31.915Z,54.03
2023-04-13T07:16:47.961Z,54.94
2023-04-13T07:20:02.920Z,55.26
2023-04-13T07:23:04.917Z,53.40
2023-04-13T07:26:20.907Z,53.51
2023-04-13T07:29:23.024Z,52.40
2023-04-13T07:32:37.939Z,52.19
2023-04-13T07:35:46.943Z,52.27
2023-04-13T07:38:55.537Z,52.10
2023-04-13T07:42:03.913Z,52.74
2023-04-13T07:45:19.914Z,52.67
2023-04-13T07:48:27.924Z,52.04
2023-04-13T07:51:36.588Z,51.74
2023-04-13T07:54:45.257Z,51.55
2023-04-13T07:57:59.944Z,52.74
2023-04-13T08:01:08.748Z,51.62
2023-04-13T08:04:17.257Z,51.96
2023-04-13T08:07:32.916Z,49.10
2023-04-13T08:10:48.911Z,49.70
2023-04-13T08:21:52.920Z,44.19
2023-04-13T08:24:54.802Z,45.76
2023-04-13T08:28:09.916Z,46.36
2023-04-13T08:31:12.269Z,44.86
2023-04-13T08:34:37.102Z,44.66
2023-04-13T08:37:45.951Z,43.26
2023-04-13T08:40:55.245Z,45.41
2023-04-13T08:44:10.920Z,45.48
2023-04-13T08:47:25.936Z,44.46
2023-04-13T08:50:40.905Z,45.34
2023-04-13T08:53:48.929Z,45.68
2023-04-13T08:56:58.277Z,45.45
2023-04-13T09:00:06.922Z,46.27
2023-04-13T09:03:23.556Z,45.94
2023-04-13T09:06:40.938Z,46.67
2023-04-13T09:09:56.930Z,47.58
2023-04-13T09:13:05.598Z,45.22
2023-04-13T09:16:20.945Z,45.62
2023-04-13T09:19:36.923Z,45.52
2023-04-13T09:22:45.603Z,45.29
2023-04-13T09:26:19.942Z,44.59
2023-04-13T09:29:37.935Z,43.01
2023-04-13T09:32:46.579Z,40.56
2023-04-13T09:35:54.956Z,39.34
2023-04-13T09:39:04.068Z,38.57
2023-04-13T09:42:18.984Z,41.44
2023-04-13T09:45:38.633Z,38.59
2023-04-13T09:49:19.189Z,36.95
2023-04-13T09:52:28.160Z,36.49
2023-04-13T09:55:46.004Z,37.17
2023-04-13T09:58:54.811Z,38.02
2023-04-13T10:02:03.967Z,38.74
2023-04-13T10:05:19.086Z,38.40
2023-04-13T10:08:37.395Z,39.12
2023-04-13T10:11:56.983Z,37.38
2023-04-13T10:15:11.949Z,38.07
2023-04-13T10:18:45.048Z,37.03
2023-04-13T10:21:50.302Z,38.31
2023-04-13T10:25:04.953Z,37.54
2023-04-13T10:28:13.574Z,38.16
2023-04-13T10:31:27.974Z,39.14
2023-04-13T10:34:42.950Z,40.44
2023-04-13T10:37:57.318Z,41.36
2023-04-13T10:41:12.966Z,41.69
2023-04-13T10:44:28.942Z,40.94
2023-04-13T10:47:44.032Z,42.56
2023-04-13T10:51:05.959Z,42.30
2023-04-13T10:54:09.144Z,41.41
2023-04-13T10:57:23.961Z,44.00
2023-04-13T11:00:45.428Z,42.12
2023-04-13T11:04:03.823Z,43.55
2023-04-13T11:07:14.532Z,43.47
2023-04-13T11:10:33.938Z,41.36
2023-04-13T11:13:50.924Z,40.31
2023-04-13T11:16:59.527Z,41.46
2023-04-13T11:20:14.957Z,41.28
2023-04-13T11:23:35.934Z,41.82
2023-04-13T11:26:38.481Z,42.45
2023-04-13T11:30:07.970Z,42.99
2023-04-13T11:33:24.498Z,43.47
2023-04-13T11:40:31.947Z,40.12
2023-04-13T11:43:48.069Z,40.00
2023-04-13T11:46:56.579Z,41.24
2023-04-13T11:50:14.793Z,41.28
2023-04-13T11:53:23.799Z,41.48
2023-04-13T11:56:38.972Z,40.06
2023-04-13T11:59:41.180Z,40.14
2023-04-13T12:03:02.292Z,39.56
2023-04-13T12:06:12.630Z,40.23
2023-04-13T12:09:54.735Z,40.31
2023-04-13T12:13:17.490Z,40.99
2023-04-13T12:17:01.467Z,39.94
2023-04-13T12:20:10.026Z,40.56
2023-04-13T12:23:32.003Z,39.30
2023-04-13T12:30:02.927Z,41.44
2023-04-13T12:33:12.973Z,42.05
2023-04-13T12:36:28.034Z,43.42
2023-04-13T12:39:44.190Z,41.16
2023-04-13T12:42:54.029Z,40.77
2023-04-13T12:46:08.949Z,40.95
2023-04-13T12:49:30.951Z,41.91
2023-04-13T12:52:39.942Z,40.05
2023-04-13T12:55:48.713Z,38.57
2023-04-13T12:58:57.146Z,38.57
2023-04-13T13:02:05.742Z,40.23
2023-04-13T13:05:14.933Z,37.76
2023-04-13T13:08:32.021Z,39.08
2023-04-13T13:11:35.771Z,37.34
2023-04-13T13:14:50.944Z,37.82
2023-04-13T13:17:52.908Z,39.79
2023-04-13T13:21:13.169Z,38.55
2023-04-13T13:24:28.970Z,37.81
2023-04-13T13:28:05.525Z,38.42
2023-04-13T13:31:05.969Z,38.73
2023-04-13T13:34:21.016Z,40.04
2023-04-13T13:37:29.558Z,39.03
2023-04-13T13:40:44.006Z,39.16
2023-04-13T13:43:52.964Z,41.24
2023-04-13T13:47:08.389Z,39.44
2023-04-13T13:50:22.950Z,39.96
2023-04-13T13:53:31.964Z,40.34
2023-04-13T13:56:40.558Z,41.68
2023-04-13T13:59:54.977Z,40.99
2023-04-13T14:03:03.968Z,41.15
2023-04-13T14:06:13.022Z,40.56
2023-04-13T14:09:27.982Z,41.55
2023-04-13T14:12:29.962Z,41.17
2023-04-13T14:15:45.021Z,41.89
2023-04-13T14:18:53.586Z,41.39
2023-04-13T14:22:01.955Z,41.45
2023-04-13T14:25:18.001Z,41.88
2023-04-13T14:28:25.994Z,41.50
2023-04-13T14:31:34.771Z,41.85
2023-04-13T14:34:50.995Z,41.78
2023-04-13T14:37:59.019Z,42.90
2023-04-13T14:41:13.960Z,42.40
2023-04-13T14:44:15.933Z,42.91
2023-04-13T14:47:30.972Z,42.89
2023-04-13T14:50:53.090Z,44.21
2023-04-13T14:54:01.998Z,43.28
2023-04-13T14:57:10.661Z,43.00
2023-04-13T15:00:19.991Z,44.54
2023-04-13T15:03:35.133Z,45.30
2023-04-13T15:06:37.205Z,44.89
2023-04-13T15:09:52.000Z,45.64
2023-04-13T15:12:53.923Z,45.47
2023-04-13T15:16:09.037Z,45.96
2023-04-13T15:19:12.290Z,46.30
2023-04-13T15:22:26.992Z,47.54
2023-04-13T15:25:43.977Z,44.97
2023-04-13T15:28:52.891Z,46.61
2023-04-13T15:32:02.040Z,47.08
2023-04-13T15:35:16.997Z,46.90
2023-04-13T15:38:25.532Z,49.39
2023-04-13T15:41:39.983Z,50.43
2023-04-13T15:44:42.090Z,50.54
2023-04-13T15:47:57.257Z,54.45
2023-04-13T15:51:19.084Z,54.52
2023-04-13T15:54:30.662Z,54.94
2023-04-13T15:57:46.081Z,55.72
2023-04-13T16:01:01.494Z,56.67
2023-04-13T16:04:16.190Z,58.32
2023-04-13T16:07:30.971Z,56.16
2023-04-13T16:10:47.002Z,58.75
2023-04-13T16:13:50.274Z,60.27
2023-04-13T16:17:05.001Z,59.38
2023-04-13T16:20:21.239Z,60.60
2023-04-13T16:23:24.239Z,62.08
2023-04-13T16:26:40.051Z,64.23
2023-04-13T16:29:48.959Z,66.15
2023-04-13T16:32:58.136Z,68.22
2023-04-13T16:36:07.203Z,66.41
2023-04-13T16:39:22.088Z,69.10
2023-04-13T16:42:33.146Z,67.48
2023-04-13T16:45:41.664Z,66.91
2023-04-13T16:48:56.108Z,66.83
2023-04-13T16:51:58.069Z,68.80
2023-04-13T16:55:14.319Z,67.28
2023-04-13T16:58:23.381Z,68.88
2023-04-13T17:01:32.000Z,66.27
2023-04-13T17:04:40.663Z,63.98
2023-04-13T17:07:56.299Z,64.84
2023-04-13T17:11:05.116Z,64.39
2023-04-13T17:14:14.004Z,64.88
2023-04-13T17:17:22.821Z,68.01
2023-04-13T17:20:38.029Z,64.49
2023-04-13T17:23:39.980Z,63.44
2023-04-13T17:26:55.458Z,63.71
2023-04-13T17:30:04.280Z,65.45
2023-04-13T17:33:19.050Z,64.25
2023-04-13T17:36:27.406Z,64.44
2023-04-13T17:39:42.029Z,64.90
2023-04-13T17:42:44.577Z,66.25
2023-04-13T17:45:59.103Z,64.92
2023-04-13T17:49:09.073Z,65.65
2023-04-13T17:52:24.040Z,64.89
2023-04-13T17:55:26.898Z,64.23
2023-04-13T17:58:42.479Z,64.46
2023-04-13T18:01:45.104Z,66.90
2023-04-13T18:05:00.047Z,66.28
2023-04-13T18:08:08.882Z,65.76
2023-04-13T18:11:25.022Z,67.17
2023-04-13T18:14:34.229Z,66.25
2023-04-13T18:17:44.369Z,64.09
2023-04-13T18:20:59.476Z,65.20
2023-04-13T18:24:02.513Z,65.69
2023-04-13T18:27:18.484Z,65.41
2023-04-13T18:30:27.460Z,65.95
2023-04-13T18:33:42.521Z,65.85
2023-04-13T18:36:57.432Z,66.27
2023-04-13T18:40:13.478Z,66.58
2023-04-13T18:43:28.007Z,67.48
2023-04-13T18:46:43.788Z,73.62
2023-04-13T18:50:00.082Z,75.90
2023-04-13T18:53:09.520Z,77.14
2023-04-13T18:56:26.786Z,78.23
2023-04-13T18:59:36.524Z,79.44
2023-04-13T19:02:54.212Z,79.54
2023-04-13T19:06:03.410Z,81.38
2023-04-13T19:09:12.539Z,82.49
2023-04-13T19:12:21.665Z,83.77
2023-04-13T19:15:38.371Z,84.88
2023-04-13T19:18:47.014Z,85.63
2023-04-13T19:22:03.377Z,85.73
2023-04-13T19:25:18.482Z,86.27
2023-04-13T19:28:27.514Z,86.33
2023-04-13T19:31:36.060Z,86.63
2023-04-13T19:34:45.290Z,86.08
2023-04-13T19:38:00.513Z,87.12
2023-04-13T19:41:12.179Z,87.93
2023-04-13T19:44:22.475Z,88.20
2023-04-13T19:47:37.517Z,87.77
2023-04-13T19:50:53.518Z,87.56
2023-04-13T19:54:02.610Z,87.31
2023-04-13T19:57:19.505Z,88.49
2023-04-13T20:00:36.318Z,89.99
2023-04-13T20:03:51.458Z,91.41
2023-04-13T20:07:00.485Z,92.04
2023-04-13T20:10:11.443Z,92.54
2023-04-13T20:13:27.432Z,92.41
2023-04-13T20:16:35.604Z,94.14
2023-04-13T20:19:44.474Z,93.30
2023-04-13T20:22:59.509Z,92.92
2023-04-13T20:26:08.252Z,95.21
2023-04-13T20:29:23.496Z,95.71
2023-04-13T20:32:39.243Z,93.25
2023-04-13T20:35:48.159Z,97.45
2023-04-13T20:39:04.052Z,95.90
2023-04-13T20:42:12.613Z,93.00
2023-04-13T20:45:27.064Z,93.88
2023-04-13T20:48:49.219Z,91.67
2023-04-13T20:52:05.164Z,90.72
2023-04-13T20:55:20.069Z,90.61
2023-04-13T20:58:28.716Z,95.55
2023-04-13T21:01:43.164Z,93.58
2023-04-13T21:04:52.043Z,90.52
2023-04-13T21:08:00.574Z,91.35
2023-04-13T21:11:09.030Z,92.83
2023-04-13T21:14:24.038Z,92.74
2023-04-13T21:17:25.981Z,91.96
2023-04-13T21:20:41.063Z,92.82
2023-04-13T21:23:46.830Z,93.44
2023-04-13T21:27:02.026Z,94.98
2023-04-13T21:30:11.010Z,97.38
2023-04-13T21:33:26.004Z,98.01
2023-04-13T21:39:59.054Z,98.47
2023-04-13T21:43:07.792Z,98.57
2023-04-13T21:46:23.083Z,98.00
2023-04-13T21:49:31.273Z,100.00
2023-04-13T21:52:45.994Z,99.78
2023-04-13T21:56:01.037Z,97.01
2023-04-13T21:59:03.123Z,98.25
2023-04-13T22:02:18.180Z,98.72
2023-04-13T22:05:20.145Z,97.86
2023-04-13T22:08:35.064Z,96.72
2023-04-13T22:11:50.025Z,95.90
2023-04-13T22:14:54.932Z,97.96
2023-04-13T22:18:10.054Z,93.36
2023-04-13T22:21:18.027Z,93.74
2023-04-13T22:24:33.016Z,91.14
2023-04-13T22:27:41.570Z,94.58
2023-04-13T22:30:50.012Z,90.95
2023-04-13T22:33:58.755Z,92.44
2023-04-13T22:37:08.015Z,93.12
2023-04-13T22:40:16.912Z,91.57
2023-04-13T22:43:32.048Z,89.27
2023-04-13T22:46:40.614Z,88.95
2023-04-13T22:50:02.093Z,88.81
2023-04-13T22:53:04.322Z,89.70
2023-04-13T22:56:19.075Z,89.53
2023-04-13T22:59:27.022Z,88.02
2023-04-13T23:02:36.104Z,88.28
2023-04-13T23:05:45.059Z,87.08
2023-04-13T23:09:02.271Z,87.33
2023-04-13T23:12:10.621Z,86.26
2023-04-13T23:15:20.018Z,86.04
2023-04-13T23:18:35.119Z,84.72
2023-04-13T23:21:37.002Z,84.96
2023-04-13T23:24:53.034Z,83.89
2023-04-13T23:28:01.045Z,85.11
2023-04-13T23:31:09.779Z,82.87
2023-04-13T23:34:19.031Z,83.40
2023-04-13T23:37:27.787Z,82.11
2023-04-13T23:40:36.048Z,82.43
2023-04-13T23:43:45.254Z,82.62
2023-04-13T23:46:54.027Z,81.87
2023-04-13T23:50:16.049Z,81.29
2023-04-13T23:53:25.048Z,81.90
2023-04-13T23:56:40.063Z,81.60
2023-04-13T23:59:48.624Z,81.98
